Topsfield, Maine
Current Conditions -  °F | °C
As of 9:53 AM on Wednesday 26 Nov 2014 (Local Time) from KMLT Reporting Station
Clear Clear  
Wind Chill: 31°   Ceiling: Unl
Heat Index: 38°   Visibility: 10mi
Dew Point: 20°   Wind: 10mph
Humidity: 48%   Direction: 300°WNW
Pressure: 30.25"   Gusts: NA
Location:  45.42°N, 67.73°W
Report Text: KMLT 261453Z AUTO 30009KT 10SM CLR 03/M07 A3025 RMK AO2 SLP251 T00331067 53023
Loading
Personal Weather Stations






























Interactive Weather Map New forecast layout! Learn more

10-Day Weather Forecast

Advertisements
Track Severe Weather on mobile